Latest Weather Observations for Viewbank

IDV60901

Issued at 7:31 am EDT Sunday 29 November 2020 (issued every 10 minutes, with the page automatically refreshed every 10 minutes)

About weather observations | Map of Melbourne area stations | Latest observations for Melbourne area | Other Formats
Station Details ID: 086068 Name: VIEWBANK Lat: -37.74 Lon: 145.10 Height: 66.1 m
Data from the previous 72 hours. | See also: Recent months at Viewbank
Date/Time
EDT
Temp
°C
App
Temp
°C
Dew
Point
°C
Rel
Hum
%
Delta-T
°C
Wind Press
QNH
hPa
Press
MSL
hPa
Rain since
9am
mm
Dir  Spd
km/h
Gust
km/h
Spd
kts
Gust
kts
29/07:30am 14.4 12.2 14.4 100 0.0 WSW 19 35 10 19 1003.7 1003.6 1.8
29/07:00am 14.9 11.2 14.9 100 0.0 W 28 48 15 26 1002.4 1002.2 1.6
29/06:53am 15.4 11.9 15.4 100 0.0 WNW 28 48 15 26 1002.3 1002.1 1.4
29/06:30am 16.1 13.9 15.9 99 0.1 WNW 22 39 12 21 1001.4 1001.2 1.0
29/06:00am 17.5 13.2 14.4 82 1.8 WNW 30 44 16 24 999.7 999.5 0.6
29/05:30am 17.8 14.5 14.9 83 1.7 WNW 26 46 14 25 997.8 997.6 0.6
29/05:23am 18.1 14.4 15.0 82 1.8 WNW 28 46 15 25 997.6 997.4 0.6
29/05:00am 18.5 15.5 15.9 85 1.6 W 26 43 14 23 996.3 996.2 0.6
29/04:30am 18.1 15.7 17.3 95 0.5 WNW 26 41 14 22 996.2 996.1 0.6
29/04:15am 17.2 16.1 17.2 100 0.0 WNW 19 44 10 24 995.6 995.5 0.6
29/04:00am 16.1 16.8 16.1 100 0.0 NW 7 11 4 6 993.9 993.8 0.4
29/03:30am 16.0 17.2 16.0 100 0.0 SSE 4 7 2 4 993.9 993.8 0.4
29/03:00am 15.9 16.7 15.9 100 0.0 SE 6 11 3 6 995.1 995.0 0.4
29/02:30am 15.9 16.5 15.9 100 0.0 SE 7 19 4 10 996.7 996.5 0.4
29/02:00am 15.8 15.6 15.8 100 0.0 E 11 20 6 11 998.0 997.8 0.2
29/01:54am 15.7 15.9 15.7 100 0.0 ESE 9 19 5 10 997.8 997.6 0.2
29/01:30am 16.0 16.9 16.0 100 0.0 W 6 11 3 6 999.8 999.6 0.2
29/01:00am 16.4 17.7 16.2 99 0.1 W 4 9 2 5 1001.1 1000.9 0.0
29/12:30am 16.8 16.5 15.5 92 0.8 W 11 20 6 11 1002.1 1001.9 0.0
29/12:00am 17.0 17.7 16.2 95 0.5 WSW 7 13 4 7 1001.4 1001.2 0.0
 
Date/Time
EDT
Temp
°C
App
Temp
°C
Dew
Point
°C
Rel
Hum
%
Delta-T
°C
Wind Press
QNH
hPa
Press
MSL
hPa
Rain since
9am
mm
Dir  Spd
km/h
Gust
km/h
Spd
kts
Gust
kts
28/11:30pm 17.1 17.9 16.3 95 0.5 WSW 7 17 4 9 1002.5 1002.3 0.0
28/11:00pm 17.4 18.1 15.7 90 1.0 W 6 9 3 5 1003.2 1003.1 0.0
28/10:30pm 17.3 17.6 16.0 92 0.8 WNW 9 17 5 9 1004.1 1004.0 0.0
28/10:00pm 17.2 16.9 15.5 90 1.0 WSW 11 15 6 8 1003.5 1003.4 0.0
28/09:30pm 17.8 18.4 16.7 93 0.7 W 9 15 5 8 1003.9 1003.8 0.0
28/09:00pm 17.8 18.0 16.7 93 0.7 WSW 11 19 6 10 1002.8 1002.6 0.0
28/08:30pm 18.4 18.0 16.2 87 1.3 W 13 28 7 15 1003.3 1003.2 0.0
28/08:00pm 19.2 18.2 15.5 79 2.2 W 15 22 8 12 1002.4 1002.2 0.0
28/07:30pm 19.8 20.4 15.9 78 2.3 W 7 13 4 7 1001.3 1001.1 0.0
28/07:00pm 20.2 20.1 16.0 77 2.5 WSW 11 17 6 9 1001.1 1000.9 0.0
28/06:30pm 20.8 22.0 16.8 78 2.4 WSW 6 13 3 7 1001.8 1001.6 0.0
28/06:00pm 21.1 21.9 15.9 72 3.1 SW 6 11 3 6 1001.1 1000.9 0.0
28/05:30pm 21.2 21.6 16.4 74 2.9 WSW 9 13 5 7 1001.7 1001.5 0.0
28/05:00pm 21.8 21.9 15.6 68 3.7 WSW 9 17 5 9 1002.2 1002.0 0.0
28/04:30pm 22.6 22.7 16.4 68 3.8 WSW 11 15 6 8 1002.9 1002.7 0.0
28/04:00pm 22.6 23.5 16.6 69 3.7 SW 7 13 4 7 1002.6 1002.4 0.0
28/03:30pm 22.4 23.3 16.0 67 3.9 SSW 6 9 3 5 1003.9 1003.8 0.0
28/03:00pm 21.7 21.5 13.1 58 5.0 S 6 11 3 6 1005.4 1005.3 0.0
28/02:30pm 20.7 20.2 13.9 65 3.9 WSW 9 15 5 8 1006.7 1006.6 0.0
28/02:00pm 21.0 19.6 13.4 62 4.4 W 13 20 7 11 1007.3 1007.2 0.0
28/01:30pm 21.4 20.4 15.5 69 3.5 WSW 15 24 8 13 1007.2 1007.1 0.0
28/01:00pm 22.3 20.5 14.4 61 4.7 WSW 17 24 9 13 1006.7 1006.6 0.0
28/12:30pm 22.9 23.0 16.4 67 4.0 WSW 11 22 6 12 1006.9 1006.8 0.0
28/12:00pm 22.1 22.5 15.2 65 4.1 SSE 7 11 4 6 1006.1 1006.0 0.0
28/11:30am 21.4 22.0 15.3 68 3.6 S 6 7 3 4 1006.2 1006.1 0.0
28/11:00am 21.3 21.9 15.2 68 3.6 S 6 13 3 7 1006.4 1006.3 0.0
28/10:30am 21.0 20.9 14.9 68 3.6 W 9 17 5 9 1006.0 1005.9 0.0
28/10:00am 20.1 19.3 15.1 73 3.0 WSW 13 20 7 11 1006.3 1006.2 0.0
28/09:30am 20.5 20.3 14.6 69 3.5 SSW 9 22 5 12 1005.4 1005.3 0.0
28/09:00am 19.3 19.4 16.5 84 1.7 ESE 11 20 6 11 1004.1 1004.0 0.0
28/08:30am 18.0 18.0 16.3 90 1.0 ESE 11 20 6 11 1005.1 1005.0 0.0
28/08:00am 17.6 18.1 15.6 88 1.2 NNW 7 17 4 9 1006.9 1006.8 0.0
28/07:30am 17.4 18.9 15.6 89 1.1 WNW 2 6 1 3 1007.1 1007.0 0.0
28/07:00am 17.0 18.6 16.0 94 0.6 WNW 2 9 1 5 1007.4 1007.3 0.0
28/06:30am 16.7 17.6 16.1 96 0.4 W 6 11 3 6 1007.4 1007.3 0.0
28/06:00am 16.6 17.5 16.0 96 0.4 SE 6 13 3 7 1006.5 1006.4 0.0
28/05:30am 16.7 17.8 15.7 94 0.6 WNW 4 9 2 5 1006.6 1006.5 0.0
28/05:00am 16.9 17.7 15.8 93 0.6 NNW 6 13 3 7 1007.3 1007.2 0.0
28/04:30am 16.9 17.6 15.6 92 0.8 SW 6 13 3 7 1007.7 1007.6 0.0
28/04:00am 17.0 17.4 14.8 87 1.3 SSW 6 9 3 5 1009.0 1008.9 0.0
28/03:38am 17.4 17.3 15.0 86 1.4 SW 9 17 5 9 1008.8 1008.7 0.0
28/03:30am 17.4 17.3 14.9 85 1.5 SSW 9 19 5 10 1010.9 1010.8 0.0
28/03:00am 17.6 16.4 15.0 85 1.5 SW 15 22 8 12 1010.8 1010.7 0.0
28/02:30am 17.8 17.1 15.4 86 1.4 SSW 13 26 7 14 1008.8 1008.7 0.0
28/02:13am 18.4 16.0 15.5 83 1.7 SSW 22 44 12 24 1009.7 1009.6 0.0
28/02:03am 18.7 15.2 15.6 82 1.8 SSW 28 48 15 26 1007.5 1007.4 0.0
28/02:00am 19.0 15.9 15.7 81 2.0 SSW 26 41 14 22 1007.6 1007.5 0.0
28/01:30am 20.7 19.7 14.6 68 3.6 SW 13 22 7 12 1006.5 1006.4 0.0
28/01:00am 21.3 20.7 13.5 61 4.5 SSW 9 15 5 8 1005.9 1005.8 0.0
28/12:30am 22.8 22.7 13.8 57 5.3 WSW 7 17 4 9 1006.7 1006.6 0.0
28/12:00am 24.1 23.9 13.6 52 6.2 W 7 11 4 6 1006.5 1006.4 0.0
 
Date/Time
EDT
Temp
°C
App
Temp
°C
Dew
Point
°C
Rel
Hum
%
Delta-T
°C
Wind Press
QNH
hPa
Press
MSL
hPa
Rain since
9am
mm
Dir  Spd
km/h
Gust
km/h
Spd
kts
Gust
kts
27/11:30pm 24.7 24.5 13.0 48 6.8 WSW 6 13 3 7 1006.3 1006.2 0.0
27/11:00pm 25.5 25.0 12.7 45 7.4 WSW 7 11 4 6 1006.9 1006.8 0.0
27/10:30pm 26.1 25.4 13.2 44 7.6 SSW 9 15 5 8 1007.1 1007.0 0.0
27/10:00pm 28.0 28.5 11.5 35 9.5 CALM 0 0 0 0 1007.0 1006.9 0.0
27/09:30pm 28.2 28.9 12.1 37 9.4 CALM 0 0 0 0 1006.9 1006.8 0.0
27/09:00pm 29.1 29.6 11.6 33 10.2 CALM 0 4 0 2 1006.7 1006.6 0.0
27/08:30pm 29.7 28.3 12.2 34 10.3 SSW 11 19 6 10 1006.5 1006.4 0.0
27/08:00pm 31.0 30.6 12.4 32 11.0 S 6 9 3 5 1006.3 1006.2 0.0
27/07:30pm 32.3 32.0 11.5 28 12.2 ENE 4 9 2 5 1006.2 1006.1 0.0
27/07:00pm 33.4 32.9 11.9 27 12.8 NNE 6 9 3 5 1006.1 1006.0 0.0
27/06:30pm 33.8 32.8 12.2 27 12.9 N 9 17 5 9 1006.1 1006.0 0.0
27/06:00pm 34.1 31.7 11.3 25 13.5 NNW 15 22 8 12 1006.4 1006.3 0.0
27/05:30pm 34.7 32.3 9.9 22 14.3 WNW 13 32 7 17 1006.8 1006.7 0.0
27/05:00pm 34.5 32.0 11.0 24 13.8 NNW 15 33 8 18 1006.9 1006.8 0.0
27/04:30pm 34.3 31.7 10.8 24 13.7 NW 15 28 8 15 1007.1 1007.0 0.0
27/04:00pm 34.2 31.4 11.4 25 13.5 NW 17 30 9 16 1007.5 1007.4 0.0
27/03:30pm 32.9 30.1 12.5 29 12.2 NNW 19 32 10 17 1008.0 1007.9 0.0
27/03:00pm 33.0 30.6 12.6 29 12.2 N 17 30 9 16 1008.4 1008.3 0.0
27/02:30pm 32.5 29.4 12.2 29 12.0 NW 20 35 11 19 1008.9 1008.8 0.0
27/02:00pm 31.5 28.8 12.8 32 11.2 NNW 19 32 10 17 1009.4 1009.3 0.0
27/01:30pm 31.5 29.1 12.8 32 11.1 N 17 30 9 16 1009.9 1009.8 0.0
27/01:00pm 28.9 26.0 11.0 33 10.3 NNW 17 30 9 16 1010.4 1010.3 0.0
27/12:30pm 28.9 25.3 10.6 32 10.4 NNW 20 33 11 18 1011.0 1010.9 0.0
27/12:00pm 28.4 25.5 11.0 34 10.0 NNW 17 32 9 17 1011.3 1011.2 0.0
27/11:30am 27.5 26.9 13.4 41 8.3 E 9 15 5 8 1011.6 1011.5 0.0
27/11:00am 24.4 23.7 13.3 50 6.5 SE 9 15 5 8 1011.8 1011.7 0.0
27/10:30am 21.5 20.1 12.1 55 5.3 E 11 15 6 8 1012.1 1012.0 0.0
27/10:00am 19.9 19.0 11.4 58 4.7 E 7 13 4 7 1012.6 1012.4 0.0
27/09:30am 17.4 16.5 10.5 64 3.7 NE 6 13 3 7 1013.0 1012.8 0.0
27/09:00am 16.6 15.7 10.7 68 3.2 ENE 6 11 3 6 1013.3 1013.1 0.0
27/08:30am 14.9 13.6 10.1 73 2.5 E 7 9 4 5 1013.3 1013.1 0.0
27/08:00am 13.6 12.5 10.6 82 1.6 ENE 7 9 4 5 1013.3 1013.1 0.0
27/07:30am 11.0 9.9 10.7 98 0.2 NE 7 11 4 6 1013.1 1012.9 0.0
27/07:00am 9.3 8.0 9.3 100 0.0 NNE 6 7 3 4 1013.1 1012.9 0.0
27/06:30am 8.4 6.9 8.4 100 0.0 NNE 6 7 3 4 1013.2 1013.0 0.0
27/06:00am 8.0 6.4 8.0 100 0.0 W 6 7 3 4 1013.2 1013.0 0.0
27/05:30am 8.2 7.4 8.1 99 0.0 W 2 7 1 4 1013.2 1013.0 0.0
27/05:00am 8.8 8.1 8.7 99 0.0 SSW 2 6 1 3 1013.1 1012.9 0.0
27/04:30am 9.1 8.9 9.0 99 0.0 CALM 0 0 0 0 1013.3 1013.1 0.0
27/04:00am 9.5 9.3 9.2 98 0.1 CALM 0 0 0 0 1013.8 1013.6 0.0
27/03:30am 10.2 10.0 9.1 93 0.5 CALM 0 0 0 0 1014.0 1013.8 0.0
27/03:00am 10.6 10.3 8.7 88 0.9 CALM 0 0 0 0 1014.4 1014.2 0.0
27/02:30am 11.0 10.7 8.6 85 1.2 CALM 0 0 0 0 1015.0 1014.8 0.0
27/02:00am 11.2 10.4 8.2 82 1.5 S 2 6 1 3 1015.3 1015.1 0.0
27/01:30am 11.4 9.8 7.9 79 1.7 S 6 9 3 5 1015.9 1015.7 0.0
27/01:00am 11.5 9.9 7.8 78 1.8 S 6 9 3 5 1016.5 1016.4 0.0
27/12:30am 12.2 10.4 7.9 75 2.1 S 7 13 4 7 1016.7 1016.6 0.0
27/12:00am 12.2 10.4 7.9 75 2.1 S 7 9 4 5 1017.1 1017.0 0.0
 
Date/Time
EDT
Temp
°C
App
Temp
°C
Dew
Point
°C
Rel
Hum
%
Delta-T
°C
Wind Press
QNH
hPa
Press
MSL
hPa
Rain since
9am
mm
Dir  Spd
km/h
Gust
km/h
Spd
kts
Gust
kts
26/11:30pm 12.7 11.2 8.4 75 2.1 S 6 13 3 7 1017.3 1017.2 0.0
26/11:00pm 13.0 11.6 8.7 75 2.2 S 6 9 3 5 1017.5 1017.4 0.0
26/10:30pm 13.6 12.0 8.7 72 2.5 S 7 13 4 7 1017.7 1017.6 0.0
26/10:00pm 14.1 12.0 8.3 68 2.9 S 9 15 5 8 1017.6 1017.5 0.0
26/09:30pm 14.4 12.3 8.1 66 3.2 S 9 19 5 10 1017.4 1017.3 0.0
26/09:00pm 14.9 12.6 7.5 61 3.7 S 9 17 5 9 1017.2 1017.1 0.0
26/08:30pm 15.6 13.1 6.6 55 4.4 SSE 9 15 5 8 1017.3 1017.2 0.0
26/08:00pm 16.6 13.9 7.5 55 4.6 SE 11 28 6 15 1016.8 1016.7 0.0
26/07:30pm 17.9 15.3 7.6 51 5.2 SE 11 26 6 14 1016.4 1016.3 0.0
26/07:00pm 18.9 16.0 6.4 44 6.2 S 11 22 6 12 1016.3 1016.2 0.0
26/06:30pm 19.7 17.1 7.8 46 6.1 SSE 11 22 6 12 1016.1 1016.0 0.0
26/06:00pm 20.2 17.1 8.8 48 6.0 S 15 24 8 13 1015.9 1015.7 0.0
26/05:30pm 19.9 16.2 9.5 51 5.5 S 19 30 10 16 1016.0 1015.8 0.0
26/05:00pm 20.1 16.6 8.8 48 5.9 S 17 30 9 16 1015.9 1015.7 0.0
26/04:30pm 21.0 18.6 9.9 49 6.0 S 13 24 7 13 1015.8 1015.6 0.0
26/04:00pm 20.8 17.5 9.4 48 6.1 SSW 17 28 9 15 1015.9 1015.7 0.0
26/03:30pm 21.3 19.0 11.9 55 5.3 SSW 15 26 8 14 1015.9 1015.7 0.0
26/03:00pm 19.4 17.6 10.7 57 4.7 S 11 28 6 15 1016.0 1015.8 0.0
26/02:30pm 20.2 18.6 11.7 58 4.7 S 11 20 6 11 1016.2 1016.1 0.0
26/02:00pm 19.7 17.3 11.5 59 4.5 SSW 15 30 8 16 1016.4 1016.3 0.0
26/01:30pm 20.0 17.6 12.5 62 4.2 SSW 17 28 9 15 1016.4 1016.3 0.0
26/01:00pm 19.9 17.2 11.7 59 4.5 SSW 17 30 9 16 1016.3 1016.2 0.0
26/12:30pm 20.3 18.2 12.5 61 4.4 SSW 15 20 8 11 1016.1 1016.0 0.0
26/12:00pm 19.7 17.4 12.9 65 3.8 S 17 26 9 14 1016.2 1016.1 0.0
26/11:30am 18.3 15.5 12.5 69 3.2 S 19 32 10 17 1016.2 1016.1 0.0
26/11:00am 18.6 17.2 13.5 72 2.9 SSW 13 22 7 12 1016.0 1015.8 0.0
26/10:30am 17.8 15.9 13.1 74 2.6 SSW 15 26 8 14 1015.8 1015.6 0.0
26/10:00am 17.6 16.0 12.9 74 2.6 SSW 13 20 7 11 1015.6 1015.4 0.0
26/09:30am 17.5 15.8 13.6 78 2.2 SSW 15 22 8 12 1015.1 1014.9 0.0
26/09:00am 17.2 15.8 13.3 78 2.2 SSW 13 20 7 11 1015.1 1014.9 0.0
26/08:30am 17.4 16.2 13.9 80 2.0 SSW 13 20 7 11 1014.8 1014.6 0.0
26/08:00am 16.8 15.8 14.6 87 1.3 S 13 24 7 13 1014.2 1014.0 0.0

Latest Capital City Observations: Canberra | Sydney | Melbourne | Brisbane | Adelaide | Perth | Hobart | Darwin

Other formats

Comma delimited format used in spreadsheet applications
http://www.bom.gov.au/fwo/IDV60901/IDV60901.95874.axf

JavaScript Object Notation format (JSON) in row-major order
http://www.bom.gov.au/fwo/IDV60901/IDV60901.95874.json

Data quality

Most of these data are generated automatically and are frequently updated. Quality checks on data are not normally performed. It is possible for incorrect values to appear. Refer to information at About Latest Weather Observations and please check the disclaimer before using these data.